createdAt,value
2017-11-15T00:02:01.966Z,58.03
2017-11-15T00:04:29.502Z,77.03
2017-11-15T00:06:57.066Z,80.45
2017-11-15T00:09:24.607Z,66.68
2017-11-15T00:11:52.197Z,77.93
2017-11-15T00:14:19.739Z,94.93
2017-11-15T00:16:47.294Z,109.57
2017-11-15T00:19:14.850Z,351.45
2017-11-15T00:21:42.415Z,156.85
2017-11-15T00:24:09.958Z,107.80
2017-11-15T00:26:37.537Z,102.93
2017-11-15T00:29:05.081Z,144.15
2017-11-15T00:31:32.621Z,153.00
2017-11-15T00:34:00.947Z,168.20
2017-11-15T00:36:28.478Z,197.87
2017-11-15T00:38:56.045Z,141.90
2017-11-15T00:41:23.588Z,94.78
2017-11-15T00:43:51.187Z,107.22
2017-11-15T00:46:18.737Z,160.23
2017-11-15T00:48:46.279Z,122.55
2017-11-15T00:51:13.865Z,348.45
2017-11-15T00:53:41.413Z,236.62
2017-11-15T00:56:08.980Z,96.65
2017-11-15T00:58:36.538Z,428.10
2017-11-15T01:01:04.088Z,183.75
2017-11-15T01:03:31.655Z,276.27
2017-11-15T01:05:59.198Z,134.12
2017-11-15T01:08:26.781Z,243.85
2017-11-15T01:10:54.354Z,200.68
2017-11-15T01:13:21.894Z,199.73
2017-11-15T01:15:49.454Z,182.77
2017-11-15T01:18:17.028Z,116.05
2017-11-15T01:20:45.362Z,219.10
2017-11-15T01:23:12.907Z,209.62
2017-11-15T01:25:40.463Z,182.82
2017-11-15T01:28:08.024Z,339.40
2017-11-15T01:30:35.566Z,204.20
2017-11-15T01:33:03.137Z,234.05
2017-11-15T01:35:30.682Z,178.00
2017-11-15T01:37:58.261Z,181.00
2017-11-15T01:40:25.807Z,252.00
2017-11-15T01:42:53.382Z,242.87
2017-11-15T01:45:20.939Z,273.27
2017-11-15T01:47:48.522Z,117.10
2017-11-15T01:50:16.081Z,110.95
2017-11-15T01:52:43.631Z,98.53
2017-11-15T01:55:11.187Z,92.15
2017-11-15T01:57:38.737Z,110.07
2017-11-15T02:00:06.308Z,71.60
2017-11-15T02:02:33.860Z,69.45
2017-11-15T02:05:01.436Z,58.05
2017-11-15T02:07:28.996Z,59.22
2017-11-15T02:09:56.573Z,55.22
2017-11-15T02:12:24.163Z,59.55
2017-11-15T02:14:52.478Z,48.17
2017-11-15T02:17:20.046Z,51.10
2017-11-15T02:19:47.599Z,44.20
2017-11-15T02:22:15.158Z,64.07
2017-11-15T02:24:42.719Z,61.17
2017-11-15T02:27:10.273Z,53.72
2017-11-15T02:29:37.840Z,59.05
2017-11-15T02:32:05.420Z,55.75
2017-11-15T02:34:32.958Z,48.08
2017-11-15T02:37:00.558Z,49.35
2017-11-15T02:39:28.147Z,50.30
2017-11-15T02:41:56.445Z,58.65
2017-11-15T02:44:24.017Z,56.22
2017-11-15T02:46:51.570Z,61.13
2017-11-15T02:49:19.133Z,61.30
2017-11-15T02:51:46.706Z,48.65
2017-11-15T02:54:14.260Z,45.95
2017-11-15T02:56:41.816Z,42.75
2017-11-15T02:59:09.480Z,43.05
2017-11-15T03:01:37.035Z,40.55
2017-11-15T03:04:04.607Z,39.60
2017-11-15T03:06:32.147Z,34.72
2017-11-15T03:08:59.681Z,32.83
2017-11-15T03:11:27.339Z,43.28
2017-11-15T03:13:55.667Z,35.58
2017-11-15T03:16:23.239Z,32.28
2017-11-15T03:18:50.815Z,36.22
2017-11-15T03:21:18.347Z,38.78
2017-11-15T03:23:45.909Z,31.45
2017-11-15T03:26:13.453Z,31.35
2017-11-15T03:28:41.015Z,36.35
2017-11-15T03:31:08.565Z,38.38
2017-11-15T03:33:36.132Z,41.15
2017-11-15T03:36:03.694Z,34.47
2017-11-15T03:38:31.238Z,40.00
2017-11-15T03:40:58.814Z,38.20
2017-11-15T03:43:26.372Z,36.30
2017-11-15T03:45:53.917Z,43.13
2017-11-15T03:48:21.483Z,37.20
2017-11-15T03:50:49.052Z,36.53
2017-11-15T03:53:16.628Z,31.52
2017-11-15T03:55:44.178Z,30.60
2017-11-15T03:58:11.752Z,34.38
2017-11-15T04:00:39.294Z,36.38
2017-11-15T04:03:06.852Z,34.97
2017-11-15T04:05:34.438Z,31.83
2017-11-15T04:08:02.001Z,29.98
2017-11-15T04:10:29.561Z,23.83
2017-11-15T04:12:57.127Z,29.83
2017-11-15T04:15:24.681Z,27.33
2017-11-15T04:17:53.727Z,27.60
2017-11-15T04:20:21.284Z,29.80
2017-11-15T04:22:48.841Z,39.70
2017-11-15T04:25:16.394Z,24.02
2017-11-15T04:27:44.701Z,27.08
2017-11-15T04:30:12.258Z,32.03
2017-11-15T04:32:39.798Z,30.88
2017-11-15T04:35:07.362Z,29.45
2017-11-15T04:37:34.907Z,31.87
2017-11-15T04:40:02.437Z,37.70
2017-11-15T04:42:29.998Z,37.50
2017-11-15T04:44:57.553Z,73.37
2017-11-15T04:47:25.233Z,61.97
2017-11-15T04:49:52.808Z,51.28
2017-11-15T04:52:20.374Z,70.55
2017-11-15T04:54:47.925Z,80.38
2017-11-15T04:57:15.491Z,55.30
2017-11-15T04:59:43.032Z,63.97
2017-11-15T05:02:10.588Z,68.37
2017-11-15T05:04:38.120Z,75.87
2017-11-15T05:07:06.454Z,155.55
2017-11-15T05:09:34.022Z,96.63
2017-11-15T05:12:01.616Z,73.75
2017-11-15T05:14:30.525Z,72.72
2017-11-15T05:16:58.070Z,61.85
2017-11-15T05:19:26.420Z,72.55
2017-11-15T05:21:53.960Z,58.35
2017-11-15T05:24:21.525Z,48.58
2017-11-15T05:26:49.080Z,36.83
2017-11-15T05:29:16.625Z,40.72
2017-11-15T05:31:44.187Z,38.70
2017-11-15T05:34:11.738Z,36.58
2017-11-15T05:36:39.290Z,43.20
2017-11-15T05:39:06.833Z,41.17
2017-11-15T05:41:34.383Z,42.53
2017-11-15T05:44:02.706Z,44.72
2017-11-15T05:46:30.268Z,45.25
2017-11-15T05:48:57.797Z,40.42
2017-11-15T05:51:25.368Z,37.20
2017-11-15T05:53:52.932Z,39.92
2017-11-15T05:56:20.515Z,36.35
2017-11-15T05:58:48.075Z,33.88
2017-11-15T06:01:15.646Z,45.60
2017-11-15T06:03:43.195Z,45.05
2017-11-15T06:06:10.759Z,39.75
2017-11-15T06:08:38.431Z,42.80
2017-11-15T06:11:06.088Z,37.58
2017-11-15T06:13:33.632Z,31.55
2017-11-15T06:16:01.232Z,30.88
2017-11-15T06:18:28.804Z,25.33
2017-11-15T06:20:56.434Z,27.83
2017-11-15T06:23:24.013Z,25.67
2017-11-15T06:25:51.556Z,26.25
2017-11-15T06:28:19.124Z,28.90
2017-11-15T06:30:46.706Z,24.67
2017-11-15T06:33:14.313Z,22.62
2017-11-15T06:35:42.534Z,27.45
2017-11-15T06:38:10.072Z,21.27
2017-11-15T06:40:37.633Z,19.42
2017-11-15T06:43:05.178Z,22.00
2017-11-15T06:45:32.738Z,26.98
2017-11-15T06:48:00.295Z,23.48
2017-11-15T06:50:27.831Z,19.33
2017-11-15T06:52:56.163Z,25.65
2017-11-15T06:55:23.707Z,27.42
2017-11-15T06:57:51.286Z,19.90
2017-11-15T07:00:18.822Z,22.48
2017-11-15T07:02:46.370Z,22.08
2017-11-15T07:05:14.703Z,21.98
2017-11-15T07:07:42.274Z,23.70
2017-11-15T07:10:09.830Z,20.80
2017-11-15T07:12:37.410Z,20.50
2017-11-15T07:15:05.742Z,24.27
2017-11-15T07:17:33.278Z,22.65
2017-11-15T07:20:00.851Z,24.80
2017-11-15T07:22:28.389Z,23.20
2017-11-15T07:24:55.954Z,29.17
2017-11-15T07:27:23.527Z,23.52
2017-11-15T07:29:51.087Z,24.75
2017-11-15T07:32:19.234Z,27.15
2017-11-15T07:34:47.559Z,17.95
2017-11-15T07:37:15.120Z,13.68
2017-11-15T07:39:42.677Z,22.87
2017-11-15T07:42:10.243Z,19.73
2017-11-15T07:44:37.779Z,14.38
2017-11-15T07:47:05.320Z,18.10
2017-11-15T07:49:32.887Z,15.18
2017-11-15T07:52:00.465Z,10.43
2017-11-15T07:54:28.058Z,15.77
2017-11-15T07:56:55.646Z,12.30
2017-11-15T07:59:23.953Z,11.02
2017-11-15T08:01:51.494Z,13.20
2017-11-15T08:04:19.055Z,14.98
2017-11-15T08:06:46.602Z,16.27
2017-11-15T08:09:14.172Z,18.05
2017-11-15T08:11:41.714Z,11.00
2017-11-15T08:14:10.056Z,14.30
2017-11-15T08:16:37.592Z,10.40
2017-11-15T08:19:05.132Z,11.40
2017-11-15T08:21:32.711Z,11.97
2017-11-15T08:24:00.282Z,12.13
2017-11-15T08:26:27.836Z,11.17
2017-11-15T08:28:55.374Z,11.77
2017-11-15T08:31:22.934Z,13.13
2017-11-15T08:33:50.475Z,12.60
2017-11-15T08:36:18.796Z,16.97
2017-11-15T08:38:46.342Z,11.40
2017-11-15T08:41:13.882Z,11.77
2017-11-15T08:43:41.453Z,12.27
2017-11-15T08:46:08.989Z,13.10
2017-11-15T08:48:37.322Z,12.13
2017-11-15T08:51:04.865Z,13.23
2017-11-15T08:53:32.425Z,12.50
2017-11-15T08:55:59.966Z,13.57
2017-11-15T08:58:27.526Z,14.60
2017-11-15T09:00:55.073Z,12.50
2017-11-15T09:03:22.646Z,12.23
2017-11-15T09:05:50.206Z,14.63
2017-11-15T09:08:17.759Z,12.00
2017-11-15T09:10:45.321Z,14.37
2017-11-15T09:13:12.894Z,11.60
2017-11-15T09:15:40.570Z,12.37
2017-11-15T09:18:08.114Z,12.68
2017-11-15T09:20:35.708Z,12.15
2017-11-15T09:23:03.248Z,11.27
2017-11-15T09:25:30.827Z,11.60
2017-11-15T09:27:58.377Z,12.05
2017-11-15T09:30:25.933Z,12.35
2017-11-15T09:32:53.508Z,12.90
2017-11-15T09:35:21.066Z,12.25
2017-11-15T09:37:48.669Z,12.55
2017-11-15T09:40:17.007Z,11.75
2017-11-15T09:42:44.554Z,10.85
2017-11-15T09:45:12.107Z,14.43
2017-11-15T09:47:39.652Z,11.00
2017-11-15T09:50:07.207Z,11.23
2017-11-15T09:52:34.794Z,10.90
2017-11-15T09:55:02.333Z,11.60
2017-11-15T09:57:29.929Z,12.10
2017-11-15T09:59:57.471Z,12.20
2017-11-15T10:02:25.027Z,11.60
2017-11-15T10:04:52.571Z,12.33
2017-11-15T10:07:20.270Z,14.60
2017-11-15T10:09:47.815Z,12.23
2017-11-15T10:12:15.373Z,12.53
2017-11-15T10:14:42.926Z,12.20
2017-11-15T10:17:10.485Z,13.80
2017-11-15T10:19:38.041Z,11.33
2017-11-15T10:22:05.574Z,11.50
2017-11-15T10:24:33.901Z,12.37
2017-11-15T10:27:01.570Z,11.03
2017-11-15T10:29:29.119Z,12.67
2017-11-15T10:31:56.666Z,10.43
2017-11-15T10:34:24.225Z,11.37
2017-11-15T10:36:51.761Z,12.03
2017-11-15T10:39:19.317Z,11.27
2017-11-15T10:41:46.879Z,10.60
2017-11-15T10:44:14.430Z,8.57
2017-11-15T10:46:42.751Z,8.40
2017-11-15T10:49:10.286Z,7.67
2017-11-15T10:51:37.823Z,6.00
2017-11-15T10:54:06.147Z,6.53
2017-11-15T10:56:33.696Z,6.93
2017-11-15T10:59:01.256Z,6.97
2017-11-15T11:01:28.803Z,8.27
2017-11-15T11:03:57.005Z,8.37
2017-11-15T11:06:24.541Z,6.90
2017-11-15T11:08:52.071Z,5.40
2017-11-15T11:11:20.403Z,6.00
2017-11-15T11:13:47.960Z,6.60
2017-11-15T11:16:15.617Z,7.13
2017-11-15T11:18:43.154Z,5.83
2017-11-15T11:21:10.728Z,5.13
2017-11-15T11:23:38.286Z,5.07
2017-11-15T11:26:05.819Z,4.33
2017-11-15T11:28:34.115Z,4.70
2017-11-15T11:31:01.679Z,4.90
2017-11-15T11:33:29.211Z,4.57
2017-11-15T11:35:57.531Z,4.50
2017-11-15T11:38:25.082Z,3.97
2017-11-15T11:40:52.619Z,4.00
2017-11-15T11:43:20.178Z,4.70
2017-11-15T11:45:47.702Z,5.20
2017-11-15T11:48:15.994Z,3.97
2017-11-15T11:50:44.310Z,4.17
2017-11-15T11:53:11.860Z,5.57
2017-11-15T11:55:39.432Z,4.23
2017-11-15T11:58:06.954Z,5.20
2017-11-15T12:00:35.271Z,4.73
2017-11-15T12:03:02.807Z,4.87
2017-11-15T12:05:30.361Z,5.13
2017-11-15T12:07:57.917Z,6.07
2017-11-15T12:10:25.489Z,5.60
2017-11-15T12:12:53.032Z,6.23
2017-11-15T12:15:21.356Z,6.20
2017-11-15T12:17:48.902Z,6.37
2017-11-15T12:20:16.442Z,6.33
2017-11-15T12:22:43.974Z,7.80
2017-11-15T12:25:11.516Z,6.87
2017-11-15T12:27:39.050Z,9.33
2017-11-15T12:30:07.362Z,7.23
2017-11-15T12:32:35.021Z,6.97
2017-11-15T12:35:02.542Z,8.47
2017-11-15T12:37:30.960Z,8.03
2017-11-15T12:39:58.510Z,8.07
2017-11-15T12:42:26.067Z,8.40
2017-11-15T12:44:53.615Z,7.37
2017-11-15T12:47:21.172Z,7.80
2017-11-15T12:49:49.489Z,7.90
2017-11-15T12:52:17.065Z,7.67
2017-11-15T12:54:44.615Z,8.50
2017-11-15T12:57:12.173Z,8.30
2017-11-15T12:59:39.705Z,9.27
2017-11-15T13:02:07.259Z,9.10
2017-11-15T13:04:34.841Z,7.90
2017-11-15T13:07:02.371Z,8.47
2017-11-15T13:09:29.938Z,7.57
2017-11-15T13:11:57.510Z,9.90
2017-11-15T13:14:25.118Z,10.17
2017-11-15T13:16:53.440Z,9.23
2017-11-15T13:19:21.004Z,6.87
2017-11-15T13:21:48.561Z,7.17
2017-11-15T13:24:16.111Z,9.30
2017-11-15T13:26:43.675Z,8.13
2017-11-15T13:29:11.243Z,8.27
2017-11-15T13:31:38.774Z,7.60
2017-11-15T13:34:07.091Z,6.90
2017-11-15T13:36:34.646Z,9.20
2017-11-15T13:39:02.194Z,6.60
2017-11-15T13:41:29.731Z,7.87
2017-11-15T13:43:58.037Z,7.10
2017-11-15T13:46:25.595Z,6.80
2017-11-15T13:48:53.126Z,6.80
2017-11-15T13:51:21.466Z,9.10
2017-11-15T13:53:49.024Z,12.47
2017-11-15T13:56:16.574Z,9.43
2017-11-15T13:58:44.109Z,7.47
2017-11-15T14:01:11.661Z,9.90
2017-11-15T14:03:39.223Z,7.10
2017-11-15T14:06:07.678Z,8.00
2017-11-15T14:08:36.030Z,8.70
2017-11-15T14:11:03.574Z,6.50
2017-11-15T14:13:31.135Z,6.30
2017-11-15T14:15:58.660Z,7.67
2017-11-15T14:18:26.222Z,7.20
2017-11-15T14:20:53.911Z,6.68
2017-11-15T14:23:21.496Z,9.18
2017-11-15T14:25:50.560Z,7.25
2017-11-15T14:28:18.138Z,8.30
2017-11-15T14:30:45.686Z,8.93
2017-11-15T14:33:13.265Z,9.48
2017-11-15T14:35:40.815Z,9.93
2017-11-15T14:38:08.359Z,6.75
2017-11-15T14:40:35.919Z,7.45
2017-11-15T14:43:03.459Z,9.02
2017-11-15T14:45:31.041Z,9.80
2017-11-15T14:47:58.576Z,8.10
2017-11-15T14:50:26.150Z,8.32
2017-11-15T14:52:53.678Z,8.90
2017-11-15T14:55:22.038Z,9.00
2017-11-15T14:57:49.648Z,9.40
2017-11-15T15:00:17.194Z,10.13
2017-11-15T15:02:44.732Z,7.43
2017-11-15T15:05:13.038Z,7.10
2017-11-15T15:07:40.599Z,6.97
2017-11-15T15:10:08.125Z,9.43
2017-11-15T15:12:36.438Z,9.13
2017-11-15T15:15:03.971Z,8.90
2017-11-15T15:17:32.292Z,9.95
2017-11-15T15:19:59.823Z,10.45
2017-11-15T15:22:27.370Z,9.63
2017-11-15T15:24:55.715Z,9.27
2017-11-15T15:27:23.280Z,8.13
2017-11-15T15:29:51.128Z,7.22
2017-11-15T15:32:18.682Z,7.82
2017-11-15T15:34:46.218Z,10.30
2017-11-15T15:37:14.539Z,9.75
2017-11-15T15:39:42.100Z,9.85
2017-11-15T15:42:09.651Z,8.23
2017-11-15T15:44:37.196Z,8.68
2017-11-15T15:47:04.745Z,9.60
2017-11-15T15:49:33.036Z,8.70
2017-11-15T15:52:01.549Z,9.73
2017-11-15T15:54:29.092Z,17.35
2017-11-15T15:56:56.636Z,10.85
2017-11-15T15:59:24.926Z,10.02
2017-11-15T16:01:52.473Z,12.95
2017-11-15T16:04:20.021Z,8.13
2017-11-15T16:06:48.336Z,10.38
2017-11-15T16:09:15.914Z,9.13
2017-11-15T16:11:43.438Z,7.80
2017-11-15T16:14:11.014Z,11.23
2017-11-15T16:16:38.547Z,14.87
2017-11-15T16:19:06.094Z,16.23
2017-11-15T16:21:34.426Z,12.52
2017-11-15T16:24:01.946Z,12.37
2017-11-15T16:26:29.507Z,13.10
2017-11-15T16:28:57.056Z,10.13
2017-11-15T16:31:25.399Z,14.68
2017-11-15T16:33:53.722Z,16.83
2017-11-15T16:36:21.299Z,8.65
2017-11-15T16:38:48.858Z,11.77
2017-11-15T16:41:16.434Z,10.00
2017-11-15T16:43:43.980Z,12.13
2017-11-15T16:46:11.528Z,13.48
2017-11-15T16:48:39.121Z,20.33
2017-11-15T16:51:06.687Z,16.00
2017-11-15T16:53:34.255Z,13.25
2017-11-15T16:56:01.790Z,16.27
2017-11-15T16:58:29.353Z,14.65
2017-11-15T17:00:56.914Z,12.45
2017-11-15T17:03:24.462Z,13.93
2017-11-15T17:05:52.047Z,11.57
2017-11-15T17:08:19.618Z,11.70
2017-11-15T17:10:48.674Z,12.55
2017-11-15T17:13:16.245Z,11.23
2017-11-15T17:15:43.791Z,14.82
2017-11-15T17:18:11.358Z,17.12
2017-11-15T17:20:38.917Z,19.23
2017-11-15T17:23:07.593Z,18.17
2017-11-15T17:25:35.177Z,16.33
2017-11-15T17:28:02.711Z,15.50
2017-11-15T17:30:30.260Z,16.80
2017-11-15T17:32:57.839Z,20.70
2017-11-15T17:35:25.454Z,15.45
2017-11-15T17:37:53.005Z,14.63
2017-11-15T17:40:20.602Z,15.15
2017-11-15T17:42:48.165Z,14.95
2017-11-15T17:45:15.708Z,19.98
2017-11-15T17:47:43.290Z,15.98
2017-11-15T17:50:10.826Z,17.65
2017-11-15T17:52:38.362Z,17.35
2017-11-15T17:55:05.944Z,18.48
2017-11-15T17:57:33.509Z,21.92
2017-11-15T18:00:01.094Z,13.90
2017-11-15T18:02:30.129Z,21.90
2017-11-15T18:04:57.690Z,21.45
2017-11-15T18:07:25.259Z,22.42
2017-11-15T18:09:52.840Z,21.05
2017-11-15T18:12:20.412Z,28.10
2017-11-15T18:14:47.982Z,24.40
2017-11-15T18:17:15.564Z,29.85
2017-11-15T18:19:43.091Z,36.03
2017-11-15T18:22:10.657Z,25.35
2017-11-15T18:24:38.231Z,22.35
2017-11-15T18:27:05.787Z,24.05
2017-11-15T18:29:33.348Z,21.25
2017-11-15T18:32:01.014Z,24.45
2017-11-15T18:34:28.947Z,21.33
2017-11-15T18:36:56.917Z,25.37
2017-11-15T18:39:25.707Z,25.20
2017-11-15T18:41:53.776Z,26.55
2017-11-15T18:44:21.738Z,28.08
2017-11-15T18:46:50.446Z,24.52
2017-11-15T18:49:19.239Z,23.12
2017-11-15T18:51:48.031Z,25.83
2017-11-15T18:54:16.809Z,20.95
2017-11-15T18:56:44.696Z,25.33
2017-11-15T18:59:14.898Z,24.50
2017-11-15T19:01:43.687Z,27.55
2017-11-15T19:04:11.860Z,32.03
2017-11-15T19:06:40.669Z,21.12
2017-11-15T19:09:09.342Z,22.08
2017-11-15T19:11:38.226Z,15.80
2017-11-15T19:14:06.194Z,16.37
2017-11-15T19:16:34.270Z,21.50
2017-11-15T19:19:02.237Z,18.23
2017-11-15T19:21:30.206Z,21.92
2017-11-15T19:23:58.177Z,18.65
2017-11-15T19:26:26.248Z,19.15
2017-11-15T19:28:54.320Z,19.75
2017-11-15T19:31:22.391Z,17.17
2017-11-15T19:33:51.195Z,21.40
2017-11-15T19:36:19.980Z,17.42
2017-11-15T19:38:47.941Z,18.20
2017-11-15T19:41:16.120Z,19.35
2017-11-15T19:43:44.903Z,17.62
2017-11-15T19:46:12.979Z,15.57
2017-11-15T19:48:41.866Z,23.30
2017-11-15T19:51:09.936Z,20.33
2017-11-15T19:53:38.010Z,22.23
2017-11-15T19:56:06.804Z,18.27
2017-11-15T19:58:34.767Z,21.90
2017-11-15T20:01:02.744Z,16.65
2017-11-15T20:03:33.367Z,23.38
2017-11-15T20:06:01.380Z,18.05
2017-11-15T20:08:29.412Z,20.45
2017-11-15T20:10:58.206Z,21.48
2017-11-15T20:13:26.986Z,23.25
2017-11-15T20:15:55.063Z,26.95
2017-11-15T20:18:23.948Z,23.38
2017-11-15T20:20:52.635Z,22.10
2017-11-15T20:23:20.607Z,25.08
2017-11-15T20:25:48.576Z,21.80
2017-11-15T20:28:16.545Z,21.65
2017-11-15T20:30:44.521Z,22.20
2017-11-15T20:33:13.230Z,19.02
2017-11-15T20:35:41.660Z,21.65
2017-11-15T20:38:09.236Z,23.00
2017-11-15T20:40:36.865Z,22.20
2017-11-15T20:43:05.182Z,24.75
2017-11-15T20:45:33.786Z,25.30
2017-11-15T20:48:01.315Z,16.48
2017-11-15T20:50:28.917Z,28.67
2017-11-15T20:52:56.511Z,25.85
2017-11-15T20:55:24.827Z,27.17
2017-11-15T20:57:52.402Z,26.45
2017-11-15T21:00:20.012Z,26.55
2017-11-15T21:02:47.631Z,35.47
2017-11-15T21:05:15.173Z,29.20
2017-11-15T21:07:42.744Z,29.40
2017-11-15T21:10:10.388Z,30.62
2017-11-15T21:12:37.959Z,34.40
2017-11-15T21:15:05.712Z,33.88
2017-11-15T21:17:33.287Z,30.37
2017-11-15T21:20:00.861Z,32.50
2017-11-15T21:22:28.407Z,30.20
2017-11-15T21:24:55.966Z,37.63
2017-11-15T21:27:23.559Z,29.30
2017-11-15T21:29:51.130Z,28.27
2017-11-15T21:32:19.465Z,33.58
2017-11-15T21:34:47.036Z,28.70
2017-11-15T21:37:14.672Z,27.73
2017-11-15T21:39:42.247Z,29.33
2017-11-15T21:42:09.799Z,28.08
2017-11-15T21:44:37.526Z,31.45
2017-11-15T21:47:05.849Z,24.63
2017-11-15T21:49:33.419Z,27.35
2017-11-15T21:52:00.978Z,27.27
2017-11-15T21:54:28.536Z,28.23
2017-11-15T21:56:56.071Z,27.98
2017-11-15T21:59:23.653Z,28.50
2017-11-15T22:01:51.212Z,25.83
2017-11-15T22:04:18.743Z,29.23
2017-11-15T22:06:46.341Z,31.80
2017-11-15T22:09:13.905Z,29.65
2017-11-15T22:11:41.481Z,38.25
2017-11-15T22:14:09.814Z,31.12
2017-11-15T22:16:37.358Z,30.23
2017-11-15T22:19:04.920Z,28.55
2017-11-15T22:21:32.487Z,30.20
2017-11-15T22:24:00.039Z,32.72
2017-11-15T22:26:27.574Z,31.05
2017-11-15T22:28:55.152Z,32.00
2017-11-15T22:31:22.691Z,30.58
2017-11-15T22:33:50.267Z,36.60
2017-11-15T22:36:17.802Z,34.47
2017-11-15T22:38:46.117Z,33.83
2017-11-15T22:41:13.674Z,34.70
2017-11-15T22:43:41.237Z,33.67
2017-11-15T22:46:08.805Z,42.70
2017-11-15T22:48:36.343Z,35.92
2017-11-15T22:51:03.919Z,32.08
2017-11-15T22:53:31.480Z,31.73
2017-11-15T22:55:59.057Z,32.22
2017-11-15T22:58:26.617Z,32.38
2017-11-15T23:00:54.162Z,31.05
2017-11-15T23:03:21.758Z,26.73
2017-11-15T23:05:50.087Z,32.58
2017-11-15T23:08:17.658Z,33.22
2017-11-15T23:10:45.220Z,32.17
2017-11-15T23:13:12.773Z,27.05
2017-11-15T23:15:40.323Z,36.58
2017-11-15T23:18:07.881Z,31.35
2017-11-15T23:20:35.431Z,30.12
2017-11-15T23:23:03.013Z,33.05
2017-11-15T23:25:30.587Z,35.58
2017-11-15T23:27:58.117Z,30.25
2017-11-15T23:30:25.695Z,31.65
2017-11-15T23:32:53.246Z,32.17
2017-11-15T23:35:20.794Z,30.58
2017-11-15T23:37:48.371Z,26.87
2017-11-15T23:40:15.913Z,31.17
2017-11-15T23:42:44.505Z,27.15
2017-11-15T23:45:12.083Z,29.55
2017-11-15T23:47:39.657Z,38.72
2017-11-15T23:50:07.206Z,35.67
2017-11-15T23:52:34.782Z,41.70
2017-11-15T23:55:02.331Z,40.08
2017-11-15T23:57:29.932Z,37.53
2017-11-15T23:59:58.258Z,40.95
